EZY37VW EGKK-GMMX
Flight info
| Callsign | EZY37VW |
|---|---|
| Flight time | 3h 7m |
| Altitude | 35000 |
| Route | IMVUR N63 SAM M195 LORKU DCT BALDA/N0440F370 DCT BATAX DCT ALAGU DCT UBESO DCT AMSEL UR722 SAK UW900 SLK UZ801 VALBA UG850 OBOGA |
| Aircraft | A21N/M-SDE2E3FGHIRWXY/LB1 |
Departure
| Time | 2026-05-06 14:15 |
|---|---|
| Airport | London Gatwick Airport (EGKK) |
Arrival
| Time | 2026-05-06 17:22 |
|---|---|
| Airport | Marrakesh Menara Airport (GMMX) |
| Time | Latitude | Longitude | Altitude | Speed | Heading |
|---|---|---|---|---|---|
| 2026-05-06 13:12 | 51.15666 | -0.17613 | 215 ft | 0 kts | 167° |
| 2026-05-06 14:02 | 51.15674 | -0.17616 | 210 ft | 4 kts | 167° |
| 2026-05-06 14:02 | 51.15700 | -0.17625 | 210 ft | 4 kts | 168° |
| 2026-05-06 14:03 | 51.15721 | -0.17630 | 212 ft | 4 kts | 186° |
| 2026-05-06 14:03 | 51.15743 | -0.17615 | 216 ft | 4 kts | 233° |
| 2026-05-06 14:03 | 51.15752 | -0.17580 | 210 ft | 4 kts | 258° |
| 2026-05-06 14:03 | 51.15758 | -0.17538 | 212 ft | 4 kts | 258° |
| 2026-05-06 14:04 | 51.15761 | -0.17515 | 213 ft | 1 kts | 258° |
| 2026-05-06 14:06 | 51.15760 | -0.17525 | 215 ft | 2 kts | 258° |
| 2026-05-06 14:06 | 51.15756 | -0.17554 | 213 ft | 4 kts | 257° |
| 2026-05-06 14:06 | 51.15747 | -0.17611 | 221 ft | 7 kts | 258° |
| 2026-05-06 14:07 | 51.15736 | -0.17699 | 215 ft | 9 kts | 259° |
| 2026-05-06 14:07 | 51.15720 | -0.17817 | 210 ft | 12 kts | 258° |
| 2026-05-06 14:07 | 51.15700 | -0.17963 | 214 ft | 15 kts | 258° |
| 2026-05-06 14:07 | 51.15675 | -0.18138 | 218 ft | 17 kts | 259° |
| 2026-05-06 14:08 | 51.15647 | -0.18339 | 213 ft | 20 kts | 258° |
| 2026-05-06 14:08 | 51.15618 | -0.18551 | 218 ft | 20 kts | 258° |
| 2026-05-06 14:08 | 51.15592 | -0.18743 | 213 ft | 11 kts | 257° |
| 2026-05-06 14:08 | 51.15556 | -0.18838 | 210 ft | 11 kts | 184° |
| 2026-05-06 14:09 | 51.15475 | -0.18806 | 216 ft | 13 kts | 167° |
| 2026-05-06 14:09 | 51.15383 | -0.18774 | 214 ft | 14 kts | 168° |
| 2026-05-06 14:09 | 51.15283 | -0.18739 | 213 ft | 15 kts | 168° |
| 2026-05-06 14:09 | 51.15186 | -0.18705 | 215 ft | 10 kts | 168° |
| 2026-05-06 14:10 | 51.15127 | -0.18753 | 215 ft | 12 kts | 258° |
| 2026-05-06 14:10 | 51.15109 | -0.18893 | 214 ft | 14 kts | 258° |
| 2026-05-06 14:10 | 51.15087 | -0.19050 | 216 ft | 15 kts | 258° |
| 2026-05-06 14:10 | 51.15064 | -0.19223 | 210 ft | 17 kts | 258° |
| 2026-05-06 14:11 | 51.15038 | -0.19414 | 213 ft | 18 kts | 258° |
| 2026-05-06 14:11 | 51.15010 | -0.19614 | 214 ft | 19 kts | 257° |
| 2026-05-06 14:11 | 51.14980 | -0.19829 | 212 ft | 21 kts | 257° |
| 2026-05-06 14:11 | 51.14948 | -0.20057 | 212 ft | 22 kts | 257° |
| 2026-05-06 14:12 | 51.14915 | -0.20297 | 213 ft | 23 kts | 257° |
| 2026-05-06 14:12 | 51.14880 | -0.20549 | 212 ft | 24 kts | 258° |
| 2026-05-06 14:12 | 51.14844 | -0.20814 | 210 ft | 25 kts | 258° |
| 2026-05-06 14:12 | 51.14808 | -0.21071 | 215 ft | 20 kts | 257° |
| 2026-05-06 14:13 | 51.14776 | -0.21233 | 210 ft | 15 kts | 254° |
| 2026-05-06 14:13 | 51.14746 | -0.21342 | 219 ft | 10 kts | 210° |
| 2026-05-06 14:13 | 51.14674 | -0.21348 | 210 ft | 11 kts | 170° |
| 2026-05-06 14:13 | 51.14591 | -0.21321 | 216 ft | 13 kts | 162° |
| 2026-05-06 14:14 | 51.14521 | -0.21222 | 211 ft | 15 kts | 105° |
| 2026-05-06 14:14 | 51.14546 | -0.20980 | 215 ft | 47 kts | 77° |
| 2026-05-06 14:14 | 51.14671 | -0.20081 | 218 ft | 117 kts | 77° |
| 2026-05-06 14:14 | 51.14882 | -0.18533 | 318 ft | 157 kts | 77° |
| 2026-05-06 14:15 | 51.15103 | -0.16853 | 1021 ft | 157 kts | 75° |
| 2026-05-06 14:15 | 51.15353 | -0.15064 | 1589 ft | 175 kts | 73° |
| 2026-05-06 14:15 | 51.15635 | -0.13026 | 2002 ft | 203 kts | 73° |
| 2026-05-06 14:15 | 51.15949 | -0.10756 | 2317 ft | 215 kts | 75° |
| 2026-05-06 14:16 | 51.16291 | -0.08404 | 2520 ft | 221 kts | 69° |
| 2026-05-06 14:16 | 51.17034 | -0.06319 | 2755 ft | 216 kts | 41° |
| 2026-05-06 14:16 | 51.18318 | -0.05151 | 3004 ft | 215 kts | 12° |
| 2026-05-06 14:16 | 51.19799 | -0.05147 | 3267 ft | 215 kts | 349° |
| 2026-05-06 14:17 | 51.21225 | -0.05871 | 3513 ft | 216 kts | 333° |
| 2026-05-06 14:17 | 51.22354 | -0.07441 | 3706 ft | 220 kts | 305° |
| 2026-05-06 14:17 | 51.22852 | -0.09748 | 3896 ft | 227 kts | 276° |
| 2026-05-06 14:17 | 51.22669 | -0.12387 | 4103 ft | 251 kts | 261° |
| 2026-05-06 14:18 | 51.22286 | -0.15188 | 4327 ft | 264 kts | 260° |
| 2026-05-06 14:18 | 51.21901 | -0.18063 | 4818 ft | 267 kts | 261° |
| 2026-05-06 14:18 | 51.21531 | -0.20972 | 5749 ft | 268 kts | 262° |
| 2026-05-06 14:18 | 51.21174 | -0.23878 | 6550 ft | 267 kts | 262° |
| 2026-05-06 14:19 | 51.20826 | -0.26797 | 7220 ft | 270 kts | 262° |
| 2026-05-06 14:19 | 51.20477 | -0.29749 | 7870 ft | 272 kts | 262° |
| 2026-05-06 14:19 | 51.20127 | -0.32724 | 8526 ft | 275 kts | 262° |
| 2026-05-06 14:19 | 51.19769 | -0.35743 | 9283 ft | 280 kts | 261° |
| 2026-05-06 14:20 | 51.19370 | -0.38801 | 10139 ft | 284 kts | 261° |
| 2026-05-06 14:20 | 51.18955 | -0.41949 | 10685 ft | 300 kts | 260° |
| 2026-05-06 14:20 | 51.18513 | -0.45305 | 11107 ft | 317 kts | 260° |
| 2026-05-06 14:20 | 51.18056 | -0.48774 | 11863 ft | 317 kts | 260° |
| 2026-05-06 14:21 | 51.17596 | -0.52212 | 12630 ft | 319 kts | 258° |
| 2026-05-06 14:21 | 51.16886 | -0.55581 | 13181 ft | 324 kts | 250° |
| 2026-05-06 14:21 | 51.16017 | -0.58845 | 13636 ft | 326 kts | 248° |
| 2026-05-06 14:21 | 51.15115 | -0.62169 | 14032 ft | 327 kts | 249° |
| 2026-05-06 14:22 | 51.14216 | -0.65502 | 14353 ft | 328 kts | 249° |
| 2026-05-06 14:22 | 51.13320 | -0.68838 | 14632 ft | 328 kts | 249° |
| 2026-05-06 14:22 | 51.12422 | -0.72189 | 14930 ft | 329 kts | 249° |
| 2026-05-06 14:22 | 51.11511 | -0.75561 | 15536 ft | 334 kts | 248° |
| 2026-05-06 14:23 | 51.10599 | -0.78972 | 16275 ft | 336 kts | 248° |
| 2026-05-06 14:23 | 51.09680 | -0.82405 | 17043 ft | 338 kts | 249° |
| 2026-05-06 14:23 | 51.08753 | -0.85859 | 17772 ft | 341 kts | 248° |
| 2026-05-06 14:23 | 51.07817 | -0.89339 | 18445 ft | 345 kts | 248° |
| 2026-05-06 14:24 | 51.06867 | -0.92862 | 19065 ft | 347 kts | 248° |
| 2026-05-06 14:24 | 51.05912 | -0.96398 | 19664 ft | 350 kts | 248° |
| 2026-05-06 14:24 | 51.04945 | -0.99968 | 20275 ft | 353 kts | 248° |
| 2026-05-06 14:24 | 51.03971 | -1.03567 | 20862 ft | 356 kts | 248° |
| 2026-05-06 14:25 | 51.02986 | -1.07199 | 21444 ft | 360 kts | 248° |
| 2026-05-06 14:25 | 51.01990 | -1.10859 | 22052 ft | 362 kts | 248° |
| 2026-05-06 14:25 | 51.00988 | -1.14535 | 22638 ft | 365 kts | 247° |
| 2026-05-06 14:25 | 50.99975 | -1.18247 | 23200 ft | 368 kts | 247° |
| 2026-05-06 14:26 | 50.98953 | -1.21989 | 23726 ft | 371 kts | 247° |
| 2026-05-06 14:26 | 50.97923 | -1.25755 | 24204 ft | 373 kts | 247° |
| 2026-05-06 14:26 | 50.96883 | -1.29537 | 24671 ft | 376 kts | 246° |
| 2026-05-06 14:26 | 50.95601 | -1.33172 | 25108 ft | 380 kts | 235° |
| 2026-05-06 14:27 | 50.93811 | -1.36287 | 25535 ft | 385 kts | 221° |
| 2026-05-06 14:27 | 50.91626 | -1.38774 | 25987 ft | 389 kts | 215° |
| 2026-05-06 14:27 | 50.89341 | -1.41096 | 26425 ft | 392 kts | 214° |
| 2026-05-06 14:27 | 50.87037 | -1.43429 | 26820 ft | 395 kts | 214° |
| 2026-05-06 14:28 | 50.84725 | -1.45792 | 27231 ft | 397 kts | 214° |
| 2026-05-06 14:28 | 50.82400 | -1.48191 | 27626 ft | 400 kts | 214° |
| 2026-05-06 14:28 | 50.80065 | -1.50606 | 27998 ft | 403 kts | 214° |
| 2026-05-06 14:28 | 50.77713 | -1.53040 | 28387 ft | 405 kts | 214° |
| 2026-05-06 14:29 | 50.75350 | -1.55485 | 28770 ft | 407 kts | 214° |
| 2026-05-06 14:29 | 50.72971 | -1.57943 | 29127 ft | 410 kts | 214° |
| 2026-05-06 14:29 | 50.70576 | -1.60413 | 29501 ft | 412 kts | 214° |
| 2026-05-06 14:29 | 50.68167 | -1.62897 | 29881 ft | 415 kts | 214° |
| 2026-05-06 14:30 | 50.65740 | -1.65395 | 30199 ft | 418 kts | 214° |
| 2026-05-06 14:30 | 50.63336 | -1.67867 | 30498 ft | 419 kts | 214° |
| 2026-05-06 14:30 | 50.60883 | -1.70385 | 30754 ft | 422 kts | 214° |
| 2026-05-06 14:30 | 50.58382 | -1.72950 | 31026 ft | 425 kts | 214° |
| 2026-05-06 14:31 | 50.55936 | -1.75456 | 31306 ft | 427 kts | 214° |
| 2026-05-06 14:31 | 50.53443 | -1.78004 | 31594 ft | 428 kts | 214° |
| 2026-05-06 14:31 | 50.50942 | -1.80564 | 31873 ft | 430 kts | 214° |
| 2026-05-06 14:31 | 50.48427 | -1.83131 | 32151 ft | 432 kts | 214° |
| 2026-05-06 14:32 | 50.45903 | -1.85706 | 32430 ft | 433 kts | 214° |
| 2026-05-06 14:32 | 50.43379 | -1.88276 | 32807 ft | 432 kts | 214° |
| 2026-05-06 14:32 | 50.40861 | -1.90835 | 33182 ft | 431 kts | 214° |
| 2026-05-06 14:32 | 50.38347 | -1.93387 | 33486 ft | 431 kts | 214° |
| 2026-05-06 14:33 | 50.35831 | -1.95939 | 33781 ft | 431 kts | 214° |
| 2026-05-06 14:33 | 50.33317 | -1.98485 | 34085 ft | 430 kts | 214° |
| 2026-05-06 14:33 | 50.30806 | -2.01024 | 34332 ft | 430 kts | 214° |
| 2026-05-06 14:33 | 50.28297 | -2.03555 | 34560 ft | 430 kts | 214° |
| 2026-05-06 14:34 | 50.25786 | -2.06089 | 34778 ft | 429 kts | 214° |
| 2026-05-06 14:34 | 50.23272 | -2.08614 | 34989 ft | 430 kts | 214° |
| 2026-05-06 14:34 | 50.18152 | -2.13602 | 35023 ft | 435 kts | 213° |
| 2026-05-06 14:35 | 50.12998 | -2.18601 | 35003 ft | 437 kts | 213° |
| 2026-05-06 14:35 | 50.07839 | -2.23604 | 34999 ft | 437 kts | 213° |
| 2026-05-06 14:36 | 50.02674 | -2.28600 | 34995 ft | 437 kts | 213° |
| 2026-05-06 14:36 | 49.97515 | -2.33570 | 35002 ft | 436 kts | 213° |
| 2026-05-06 14:37 | 49.92236 | -2.38212 | 34993 ft | 438 kts | 205° |
| 2026-05-06 14:37 | 49.86632 | -2.41947 | 35007 ft | 438 kts | 205° |
| 2026-05-06 14:38 | 49.81020 | -2.45646 | 35012 ft | 438 kts | 205° |
| 2026-05-06 14:38 | 49.75411 | -2.49356 | 35012 ft | 438 kts | 205° |
| 2026-05-06 14:39 | 49.69805 | -2.53063 | 35009 ft | 439 kts | 205° |
| 2026-05-06 14:39 | 49.64184 | -2.56771 | 34999 ft | 439 kts | 205° |
| 2026-05-06 14:40 | 49.58560 | -2.60467 | 34994 ft | 439 kts | 204° |
| 2026-05-06 14:40 | 49.52932 | -2.64151 | 34994 ft | 439 kts | 204° |
| 2026-05-06 14:41 | 49.47306 | -2.67836 | 34990 ft | 440 kts | 204° |
| 2026-05-06 14:41 | 49.41673 | -2.71515 | 34993 ft | 440 kts | 204° |
| 2026-05-06 14:42 | 49.36037 | -2.75180 | 34994 ft | 440 kts | 204° |
| 2026-05-06 14:42 | 49.30400 | -2.78841 | 34992 ft | 440 kts | 204° |
| 2026-05-06 14:43 | 49.24762 | -2.82491 | 34984 ft | 440 kts | 204° |
| 2026-05-06 14:43 | 49.19114 | -2.86140 | 34984 ft | 441 kts | 204° |
| 2026-05-06 14:44 | 49.13463 | -2.89782 | 34988 ft | 441 kts | 204° |
| 2026-05-06 14:45 | 49.04984 | -2.95230 | 34987 ft | 441 kts | 204° |
| 2026-05-06 14:45 | 48.99326 | -2.98851 | 34983 ft | 441 kts | 204° |
| 2026-05-06 14:46 | 48.93666 | -3.02471 | 34986 ft | 441 kts | 204° |
| 2026-05-06 14:46 | 48.88004 | -3.06084 | 34986 ft | 441 kts | 204° |
| 2026-05-06 14:47 | 48.82380 | -3.09656 | 34985 ft | 440 kts | 204° |
| 2026-05-06 14:47 | 48.76736 | -3.13236 | 34988 ft | 440 kts | 204° |
| 2026-05-06 14:48 | 48.71089 | -3.16808 | 34988 ft | 440 kts | 204° |
| 2026-05-06 14:48 | 48.65443 | -3.20372 | 34987 ft | 440 kts | 204° |
| 2026-05-06 14:49 | 48.60714 | -3.23349 | 34988 ft | 440 kts | 204° |
| 2026-05-06 14:49 | 48.55061 | -3.26905 | 34982 ft | 440 kts | 204° |
| 2026-05-06 14:50 | 48.49443 | -3.30426 | 34974 ft | 440 kts | 204° |
| 2026-05-06 14:50 | 48.43787 | -3.33962 | 34972 ft | 440 kts | 204° |
| 2026-05-06 14:51 | 48.38126 | -3.37491 | 34967 ft | 440 kts | 204° |
| 2026-05-06 14:51 | 48.32462 | -3.41013 | 34968 ft | 441 kts | 204° |
| 2026-05-06 14:52 | 48.26794 | -3.44531 | 34964 ft | 441 kts | 204° |
| 2026-05-06 14:52 | 48.21130 | -3.48036 | 34963 ft | 441 kts | 204° |
| 2026-05-06 14:53 | 48.15460 | -3.51539 | 34965 ft | 441 kts | 204° |
| 2026-05-06 14:53 | 48.09789 | -3.55040 | 34967 ft | 441 kts | 204° |
| 2026-05-06 14:54 | 48.04120 | -3.58539 | 34965 ft | 441 kts | 204° |
| 2026-05-06 14:54 | 47.98447 | -3.62018 | 34963 ft | 441 kts | 204° |
| 2026-05-06 14:55 | 47.92770 | -3.65491 | 34959 ft | 441 kts | 204° |
| 2026-05-06 14:55 | 47.87092 | -3.68960 | 34960 ft | 441 kts | 204° |
| 2026-05-06 14:56 | 47.81418 | -3.72415 | 34972 ft | 441 kts | 204° |
| 2026-05-06 14:56 | 47.75732 | -3.75872 | 34965 ft | 441 kts | 204° |
| 2026-05-06 14:57 | 47.70052 | -3.79318 | 34970 ft | 441 kts | 204° |
| 2026-05-06 14:57 | 47.64371 | -3.82749 | 34972 ft | 441 kts | 204° |
| 2026-05-06 14:58 | 47.58694 | -3.86175 | 34985 ft | 440 kts | 204° |
| 2026-05-06 14:58 | 47.53055 | -3.89564 | 34986 ft | 441 kts | 204° |
| 2026-05-06 14:59 | 47.47372 | -3.92976 | 34980 ft | 441 kts | 204° |
| 2026-05-06 14:59 | 47.41689 | -3.96379 | 34978 ft | 441 kts | 204° |
| 2026-05-06 15:00 | 47.36006 | -3.99777 | 34985 ft | 441 kts | 204° |
| 2026-05-06 15:00 | 47.30318 | -4.03169 | 34992 ft | 441 kts | 204° |
| 2026-05-06 15:01 | 47.24627 | -4.06556 | 34991 ft | 441 kts | 204° |
| 2026-05-06 15:01 | 47.18938 | -4.09928 | 34989 ft | 441 kts | 204° |
| 2026-05-06 15:02 | 47.13254 | -4.13300 | 35001 ft | 440 kts | 204° |
| 2026-05-06 15:02 | 47.07574 | -4.16653 | 34999 ft | 440 kts | 204° |
| 2026-05-06 15:03 | 47.01893 | -4.19998 | 34998 ft | 440 kts | 204° |
| 2026-05-06 15:03 | 46.96217 | -4.23339 | 35000 ft | 440 kts | 204° |
| 2026-05-06 15:04 | 46.90537 | -4.26673 | 35003 ft | 440 kts | 204° |
| 2026-05-06 15:04 | 46.84854 | -4.29990 | 35001 ft | 440 kts | 204° |
| 2026-05-06 15:05 | 46.79175 | -4.33301 | 35002 ft | 440 kts | 203° |
| 2026-05-06 15:05 | 46.73489 | -4.36613 | 35003 ft | 440 kts | 204° |
| 2026-05-06 15:06 | 46.67808 | -4.39917 | 35005 ft | 440 kts | 204° |
| 2026-05-06 15:06 | 46.62122 | -4.43213 | 35008 ft | 440 kts | 203° |
| 2026-05-06 15:07 | 46.56437 | -4.46504 | 35008 ft | 440 kts | 203° |
| 2026-05-06 15:07 | 46.50755 | -4.49784 | 35005 ft | 440 kts | 203° |
| 2026-05-06 15:08 | 46.45068 | -4.53059 | 35007 ft | 440 kts | 203° |
| 2026-05-06 15:08 | 46.39379 | -4.56330 | 35010 ft | 440 kts | 203° |
| 2026-05-06 15:09 | 46.33689 | -4.59594 | 35009 ft | 440 kts | 203° |
| 2026-05-06 15:09 | 46.27998 | -4.62853 | 35011 ft | 440 kts | 203° |
| 2026-05-06 15:10 | 46.22299 | -4.66104 | 35011 ft | 441 kts | 203° |
| 2026-05-06 15:10 | 46.16589 | -4.69359 | 35014 ft | 441 kts | 203° |
| 2026-05-06 15:11 | 46.10879 | -4.72603 | 35019 ft | 441 kts | 203° |
| 2026-05-06 15:11 | 46.05168 | -4.75844 | 35016 ft | 442 kts | 203° |
| 2026-05-06 15:12 | 45.99472 | -4.79068 | 35018 ft | 438 kts | 203° |
| 2026-05-06 15:12 | 45.93800 | -4.82269 | 35020 ft | 438 kts | 203° |
| 2026-05-06 15:13 | 45.88128 | -4.85468 | 35020 ft | 438 kts | 203° |
| 2026-05-06 15:13 | 45.82486 | -4.88638 | 35021 ft | 439 kts | 203° |
| 2026-05-06 15:14 | 45.76762 | -4.91847 | 35021 ft | 439 kts | 203° |
| 2026-05-06 15:14 | 45.71122 | -4.95003 | 35021 ft | 438 kts | 203° |
| 2026-05-06 15:15 | 45.65437 | -4.98178 | 35021 ft | 438 kts | 203° |
| 2026-05-06 15:15 | 45.59744 | -5.01351 | 35027 ft | 440 kts | 203° |
| 2026-05-06 15:16 | 45.54042 | -5.04524 | 35025 ft | 440 kts | 203° |
| 2026-05-06 15:16 | 45.48343 | -5.07685 | 35024 ft | 437 kts | 203° |
| 2026-05-06 15:17 | 45.42686 | -5.10816 | 35029 ft | 436 kts | 203° |
| 2026-05-06 15:17 | 45.37023 | -5.13945 | 35031 ft | 437 kts | 203° |
| 2026-05-06 15:18 | 45.31363 | -5.17065 | 35029 ft | 437 kts | 203° |
| 2026-05-06 15:18 | 45.25698 | -5.20183 | 35025 ft | 437 kts | 203° |
| 2026-05-06 15:19 | 45.20036 | -5.23291 | 35030 ft | 437 kts | 203° |
| 2026-05-06 15:19 | 45.14367 | -5.26397 | 35030 ft | 437 kts | 203° |
| 2026-05-06 15:20 | 45.08700 | -5.29494 | 35029 ft | 436 kts | 203° |
| 2026-05-06 15:20 | 45.03030 | -5.32588 | 35028 ft | 437 kts | 203° |
| 2026-05-06 15:21 | 44.97347 | -5.35681 | 35026 ft | 437 kts | 203° |
| 2026-05-06 15:21 | 44.91700 | -5.38744 | 35024 ft | 433 kts | 202° |
| 2026-05-06 15:22 | 44.86072 | -5.41795 | 35019 ft | 434 kts | 202° |
| 2026-05-06 15:22 | 44.80471 | -5.44824 | 35026 ft | 434 kts | 202° |
| 2026-05-06 15:23 | 44.74830 | -5.47869 | 35144 ft | 435 kts | 202° |
| 2026-05-06 15:23 | 44.71999 | -5.49395 | 35369 ft | 435 kts | 202° |
| 2026-05-06 15:23 | 44.69171 | -5.50917 | 35564 ft | 436 kts | 203° |
| 2026-05-06 15:23 | 44.66337 | -5.52442 | 35730 ft | 437 kts | 203° |
| 2026-05-06 15:24 | 44.63490 | -5.53970 | 35896 ft | 438 kts | 203° |
| 2026-05-06 15:24 | 44.60620 | -5.55437 | 36022 ft | 441 kts | 199° |
| 2026-05-06 15:24 | 44.57665 | -5.56626 | 36189 ft | 442 kts | 197° |
| 2026-05-06 15:24 | 44.54701 | -5.57763 | 36359 ft | 443 kts | 197° |
| 2026-05-06 15:25 | 44.51725 | -5.58900 | 36542 ft | 443 kts | 197° |
| 2026-05-06 15:25 | 44.48751 | -5.60035 | 36706 ft | 443 kts | 197° |
| 2026-05-06 15:25 | 44.45777 | -5.61176 | 36864 ft | 443 kts | 197° |
| 2026-05-06 15:25 | 44.42802 | -5.62319 | 37018 ft | 444 kts | 197° |
| 2026-05-06 15:26 | 44.39817 | -5.63462 | 37057 ft | 445 kts | 197° |
| 2026-05-06 15:26 | 44.33857 | -5.65744 | 37034 ft | 444 kts | 197° |
| 2026-05-06 15:27 | 44.27896 | -5.68018 | 37008 ft | 444 kts | 197° |
| 2026-05-06 15:27 | 44.21936 | -5.70282 | 37020 ft | 444 kts | 197° |
| 2026-05-06 15:28 | 44.15971 | -5.72530 | 37019 ft | 444 kts | 197° |
| 2026-05-06 15:28 | 44.10057 | -5.74778 | 37019 ft | 443 kts | 198° |
| 2026-05-06 15:29 | 44.04103 | -5.77036 | 37018 ft | 443 kts | 198° |
| 2026-05-06 15:29 | 43.98144 | -5.79295 | 37017 ft | 444 kts | 198° |
| 2026-05-06 15:30 | 43.92192 | -5.81537 | 37018 ft | 444 kts | 197° |
| 2026-05-06 15:30 | 43.86231 | -5.83780 | 37013 ft | 443 kts | 198° |
| 2026-05-06 15:31 | 43.80276 | -5.86013 | 37020 ft | 443 kts | 198° |
| 2026-05-06 15:31 | 43.74323 | -5.88241 | 37028 ft | 443 kts | 198° |
| 2026-05-06 15:32 | 43.65394 | -5.91580 | 37020 ft | 443 kts | 198° |
| 2026-05-06 15:32 | 43.59445 | -5.93798 | 37020 ft | 443 kts | 198° |
| 2026-05-06 15:33 | 43.53494 | -5.96026 | 37021 ft | 443 kts | 198° |
| 2026-05-06 15:33 | 43.47541 | -5.98247 | 37025 ft | 443 kts | 198° |
| 2026-05-06 15:34 | 43.41589 | -6.00451 | 37016 ft | 443 kts | 198° |
| 2026-05-06 15:34 | 43.35636 | -6.02659 | 37021 ft | 443 kts | 198° |
| 2026-05-06 15:35 | 43.29682 | -6.04854 | 37024 ft | 443 kts | 198° |
| 2026-05-06 15:35 | 43.23770 | -6.07034 | 37003 ft | 443 kts | 198° |
| 2026-05-06 15:36 | 43.17782 | -6.09239 | 36988 ft | 443 kts | 198° |
| 2026-05-06 15:36 | 43.12845 | -6.11051 | 36990 ft | 442 kts | 198° |
| 2026-05-06 15:37 | 43.05929 | -6.13572 | 36977 ft | 442 kts | 198° |
| 2026-05-06 15:37 | 42.99985 | -6.15750 | 36968 ft | 442 kts | 198° |
| 2026-05-06 15:38 | 42.95019 | -6.17566 | 36967 ft | 441 kts | 198° |
| 2026-05-06 15:38 | 42.89079 | -6.19733 | 36954 ft | 442 kts | 198° |
| 2026-05-06 15:39 | 42.83147 | -6.21887 | 36941 ft | 441 kts | 198° |
| 2026-05-06 15:39 | 42.77272 | -6.24018 | 36942 ft | 440 kts | 198° |
| 2026-05-06 15:40 | 42.71356 | -6.26164 | 36942 ft | 440 kts | 198° |
| 2026-05-06 15:40 | 42.65431 | -6.28301 | 36931 ft | 440 kts | 198° |
| 2026-05-06 15:41 | 42.59514 | -6.30440 | 36928 ft | 440 kts | 198° |
| 2026-05-06 15:41 | 42.53588 | -6.32569 | 36925 ft | 440 kts | 198° |
| 2026-05-06 15:42 | 42.47667 | -6.34700 | 36925 ft | 441 kts | 198° |
| 2026-05-06 15:42 | 42.41741 | -6.36822 | 36925 ft | 440 kts | 198° |
| 2026-05-06 15:43 | 42.35824 | -6.38941 | 36925 ft | 439 kts | 198° |
| 2026-05-06 15:43 | 42.29914 | -6.41055 | 36926 ft | 440 kts | 198° |
| 2026-05-06 15:44 | 42.23946 | -6.42932 | 36921 ft | 441 kts | 195° |
| 2026-05-06 15:44 | 42.17966 | -6.44726 | 36917 ft | 440 kts | 195° |
| 2026-05-06 15:45 | 42.11983 | -6.46539 | 36922 ft | 440 kts | 195° |
| 2026-05-06 15:45 | 42.06023 | -6.48343 | 36929 ft | 439 kts | 195° |
| 2026-05-06 15:46 | 42.00070 | -6.50140 | 36915 ft | 439 kts | 195° |
| 2026-05-06 15:46 | 41.94122 | -6.51935 | 36918 ft | 438 kts | 195° |
| 2026-05-06 15:47 | 41.88178 | -6.53728 | 36913 ft | 438 kts | 195° |
| 2026-05-06 15:47 | 41.82231 | -6.55515 | 36917 ft | 438 kts | 195° |
| 2026-05-06 15:48 | 41.76288 | -6.57293 | 36912 ft | 437 kts | 195° |
| 2026-05-06 15:48 | 41.70344 | -6.59066 | 36916 ft | 438 kts | 195° |
| 2026-05-06 15:49 | 41.64406 | -6.60847 | 36910 ft | 438 kts | 195° |
| 2026-05-06 15:49 | 41.58461 | -6.62627 | 36905 ft | 437 kts | 195° |
| 2026-05-06 15:50 | 41.52522 | -6.64392 | 36914 ft | 438 kts | 195° |
| 2026-05-06 15:50 | 41.46577 | -6.66159 | 36912 ft | 438 kts | 195° |
| 2026-05-06 15:51 | 41.40636 | -6.67923 | 36909 ft | 437 kts | 195° |
| 2026-05-06 15:51 | 41.34733 | -6.69670 | 36902 ft | 438 kts | 195° |
| 2026-05-06 15:52 | 41.28792 | -6.71427 | 36907 ft | 437 kts | 195° |
| 2026-05-06 15:52 | 41.22851 | -6.73181 | 36909 ft | 437 kts | 195° |
| 2026-05-06 15:53 | 41.16906 | -6.74927 | 36909 ft | 437 kts | 195° |
| 2026-05-06 15:53 | 41.10965 | -6.76672 | 36902 ft | 438 kts | 196° |
| 2026-05-06 15:54 | 41.05021 | -6.78418 | 36905 ft | 438 kts | 196° |
| 2026-05-06 15:54 | 40.99078 | -6.80157 | 36906 ft | 437 kts | 195° |
| 2026-05-06 15:55 | 40.93133 | -6.81891 | 36903 ft | 438 kts | 195° |
| 2026-05-06 15:55 | 40.87187 | -6.83621 | 36899 ft | 437 kts | 196° |
| 2026-05-06 15:56 | 40.81240 | -6.85358 | 36897 ft | 439 kts | 196° |
| 2026-05-06 15:56 | 40.75281 | -6.87090 | 36899 ft | 438 kts | 196° |
| 2026-05-06 15:57 | 40.69323 | -6.88823 | 36889 ft | 438 kts | 196° |
| 2026-05-06 15:57 | 40.63370 | -6.90544 | 36900 ft | 438 kts | 196° |
| 2026-05-06 15:58 | 40.57409 | -6.92263 | 36896 ft | 438 kts | 196° |
| 2026-05-06 15:58 | 40.51450 | -6.93984 | 36897 ft | 439 kts | 196° |
| 2026-05-06 15:59 | 40.45488 | -6.95702 | 36895 ft | 438 kts | 196° |
| 2026-05-06 15:59 | 40.39528 | -6.97410 | 36892 ft | 439 kts | 196° |
| 2026-05-06 16:00 | 40.33570 | -6.99123 | 36890 ft | 438 kts | 196° |
| 2026-05-06 16:00 | 40.27613 | -7.00831 | 36893 ft | 438 kts | 196° |
| 2026-05-06 16:01 | 40.21656 | -7.02519 | 36885 ft | 438 kts | 196° |
| 2026-05-06 16:01 | 40.15694 | -7.04214 | 36885 ft | 439 kts | 196° |
| 2026-05-06 16:02 | 40.09730 | -7.05909 | 36885 ft | 438 kts | 196° |
| 2026-05-06 16:02 | 40.03810 | -7.07587 | 36882 ft | 439 kts | 196° |
| 2026-05-06 16:03 | 39.97844 | -7.09278 | 36878 ft | 439 kts | 196° |
| 2026-05-06 16:03 | 39.91886 | -7.10967 | 36878 ft | 439 kts | 196° |
| 2026-05-06 16:04 | 39.85882 | -7.12665 | 36877 ft | 438 kts | 196° |
| 2026-05-06 16:04 | 39.79960 | -7.14339 | 36857 ft | 438 kts | 196° |
| 2026-05-06 16:05 | 39.73996 | -7.16027 | 36882 ft | 438 kts | 196° |
| 2026-05-06 16:05 | 39.68034 | -7.17707 | 36875 ft | 438 kts | 196° |
| 2026-05-06 16:06 | 39.62072 | -7.19391 | 36871 ft | 438 kts | 196° |
| 2026-05-06 16:06 | 39.56112 | -7.21069 | 36875 ft | 438 kts | 197° |
| 2026-05-06 16:07 | 39.50150 | -7.22740 | 36890 ft | 438 kts | 197° |
| 2026-05-06 16:07 | 39.44192 | -7.24407 | 36885 ft | 438 kts | 197° |
| 2026-05-06 16:08 | 39.38231 | -7.26069 | 36882 ft | 438 kts | 197° |
| 2026-05-06 16:08 | 39.32265 | -7.27732 | 36879 ft | 438 kts | 196° |
| 2026-05-06 16:09 | 39.26309 | -7.29383 | 36879 ft | 438 kts | 197° |
| 2026-05-06 16:09 | 39.20352 | -7.31037 | 36885 ft | 438 kts | 197° |
| 2026-05-06 16:10 | 39.14391 | -7.32686 | 36887 ft | 438 kts | 197° |
| 2026-05-06 16:10 | 39.08436 | -7.34338 | 36882 ft | 438 kts | 197° |
| 2026-05-06 16:11 | 39.02476 | -7.35978 | 36884 ft | 438 kts | 196° |
| 2026-05-06 16:11 | 38.96519 | -7.37623 | 36888 ft | 438 kts | 197° |
| 2026-05-06 16:12 | 38.90562 | -7.39260 | 36884 ft | 438 kts | 197° |
| 2026-05-06 16:12 | 38.84602 | -7.40894 | 36873 ft | 438 kts | 196° |
| 2026-05-06 16:13 | 38.78643 | -7.42531 | 36883 ft | 437 kts | 196° |
| 2026-05-06 16:13 | 38.72685 | -7.44161 | 36885 ft | 438 kts | 196° |
| 2026-05-06 16:14 | 38.66726 | -7.45786 | 36887 ft | 438 kts | 196° |
| 2026-05-06 16:14 | 38.60771 | -7.47411 | 36882 ft | 437 kts | 196° |
| 2026-05-06 16:15 | 38.54816 | -7.49034 | 36885 ft | 438 kts | 196° |
| 2026-05-06 16:15 | 38.48858 | -7.50651 | 36884 ft | 438 kts | 196° |
| 2026-05-06 16:16 | 38.42907 | -7.52268 | 36884 ft | 437 kts | 196° |
| 2026-05-06 16:16 | 38.36949 | -7.53881 | 36870 ft | 438 kts | 196° |
| 2026-05-06 16:17 | 38.31033 | -7.55478 | 36874 ft | 437 kts | 196° |
| 2026-05-06 16:17 | 38.25081 | -7.57080 | 36879 ft | 437 kts | 196° |
| 2026-05-06 16:18 | 38.19126 | -7.58687 | 36889 ft | 437 kts | 196° |
| 2026-05-06 16:18 | 38.13173 | -7.60294 | 36892 ft | 438 kts | 196° |
| 2026-05-06 16:19 | 38.07161 | -7.61691 | 36890 ft | 442 kts | 191° |
| 2026-05-06 16:19 | 38.01036 | -7.62481 | 36898 ft | 443 kts | 190° |
| 2026-05-06 16:20 | 37.94905 | -7.63259 | 36877 ft | 443 kts | 190° |
| 2026-05-06 16:20 | 37.88781 | -7.64053 | 36872 ft | 442 kts | 190° |
| 2026-05-06 16:21 | 37.82662 | -7.64848 | 36879 ft | 442 kts | 190° |
| 2026-05-06 16:21 | 37.76539 | -7.65638 | 36882 ft | 442 kts | 190° |
| 2026-05-06 16:22 | 37.70420 | -7.66430 | 36866 ft | 442 kts | 190° |
| 2026-05-06 16:22 | 37.64305 | -7.67218 | 36879 ft | 442 kts | 190° |
| 2026-05-06 16:23 | 37.58192 | -7.68009 | 36882 ft | 441 kts | 190° |
| 2026-05-06 16:23 | 37.52080 | -7.68789 | 36885 ft | 441 kts | 190° |
| 2026-05-06 16:24 | 37.47002 | -7.69444 | 36881 ft | 441 kts | 190° |
| 2026-05-06 16:24 | 37.40895 | -7.70226 | 36880 ft | 441 kts | 190° |
| 2026-05-06 16:25 | 37.34797 | -7.71003 | 36885 ft | 440 kts | 190° |
| 2026-05-06 16:25 | 37.28700 | -7.71780 | 36886 ft | 440 kts | 190° |
| 2026-05-06 16:26 | 37.22603 | -7.72555 | 36884 ft | 440 kts | 190° |
| 2026-05-06 16:26 | 37.16518 | -7.73331 | 36885 ft | 439 kts | 190° |
| 2026-05-06 16:27 | 37.10438 | -7.74104 | 36883 ft | 440 kts | 190° |
| 2026-05-06 16:27 | 37.04350 | -7.74875 | 36893 ft | 439 kts | 190° |
| 2026-05-06 16:28 | 36.98267 | -7.75643 | 36890 ft | 440 kts | 190° |
| 2026-05-06 16:28 | 36.92192 | -7.76415 | 36889 ft | 438 kts | 190° |
| 2026-05-06 16:29 | 36.86130 | -7.77181 | 36898 ft | 438 kts | 190° |
| 2026-05-06 16:29 | 36.80070 | -7.77949 | 36894 ft | 438 kts | 190° |
| 2026-05-06 16:30 | 36.75026 | -7.78579 | 36901 ft | 438 kts | 190° |
| 2026-05-06 16:30 | 36.67950 | -7.79483 | 36910 ft | 436 kts | 191° |
| 2026-05-06 16:31 | 36.61905 | -7.80243 | 36918 ft | 436 kts | 190° |
| 2026-05-06 16:31 | 36.55902 | -7.80996 | 36925 ft | 436 kts | 190° |
| 2026-05-06 16:32 | 36.49822 | -7.81754 | 36924 ft | 437 kts | 190° |
| 2026-05-06 16:32 | 36.43787 | -7.82507 | 36921 ft | 434 kts | 191° |
| 2026-05-06 16:33 | 36.37811 | -7.83252 | 36919 ft | 434 kts | 191° |
| 2026-05-06 16:34 | 36.28797 | -7.84372 | 36932 ft | 434 kts | 191° |
| 2026-05-06 16:34 | 36.22790 | -7.85120 | 36915 ft | 434 kts | 191° |
| 2026-05-06 16:35 | 36.16795 | -7.85863 | 36935 ft | 433 kts | 191° |
| 2026-05-06 16:35 | 36.10800 | -7.86607 | 36934 ft | 433 kts | 191° |
| 2026-05-06 16:36 | 36.04806 | -7.87347 | 36931 ft | 433 kts | 191° |
| 2026-05-06 16:36 | 35.98804 | -7.88086 | 36927 ft | 433 kts | 191° |
| 2026-05-06 16:37 | 35.92712 | -7.88041 | 36935 ft | 442 kts | 181° |
| 2026-05-06 16:37 | 35.86582 | -7.87462 | 36935 ft | 442 kts | 181° |
| 2026-05-06 16:38 | 35.80456 | -7.86893 | 36936 ft | 442 kts | 181° |
| 2026-05-06 16:38 | 35.74324 | -7.86334 | 36937 ft | 442 kts | 181° |
| 2026-05-06 16:39 | 35.68199 | -7.85786 | 36939 ft | 442 kts | 181° |
| 2026-05-06 16:39 | 35.62065 | -7.85234 | 36941 ft | 442 kts | 181° |
| 2026-05-06 16:40 | 35.55937 | -7.84683 | 36940 ft | 442 kts | 181° |
| 2026-05-06 16:40 | 35.49814 | -7.84131 | 36918 ft | 441 kts | 181° |
| 2026-05-06 16:41 | 35.43740 | -7.83585 | 36939 ft | 440 kts | 181° |
| 2026-05-06 16:41 | 35.37635 | -7.83048 | 36949 ft | 440 kts | 181° |
| 2026-05-06 16:42 | 35.31526 | -7.82537 | 36948 ft | 440 kts | 181° |
| 2026-05-06 16:42 | 35.25418 | -7.82023 | 36945 ft | 440 kts | 181° |
| 2026-05-06 16:43 | 35.19319 | -7.81507 | 36942 ft | 439 kts | 182° |
| 2026-05-06 16:43 | 35.13229 | -7.80993 | 36946 ft | 439 kts | 182° |
| 2026-05-06 16:44 | 35.07137 | -7.80481 | 36945 ft | 439 kts | 182° |
| 2026-05-06 16:44 | 35.01045 | -7.79970 | 36947 ft | 439 kts | 182° |
| 2026-05-06 16:45 | 34.94956 | -7.79458 | 36938 ft | 437 kts | 182° |
| 2026-05-06 16:45 | 34.88883 | -7.78949 | 36945 ft | 437 kts | 182° |
| 2026-05-06 16:46 | 34.82808 | -7.78444 | 36943 ft | 438 kts | 182° |
| 2026-05-06 16:46 | 34.76734 | -7.77938 | 36946 ft | 437 kts | 182° |
| 2026-05-06 16:47 | 34.70672 | -7.77458 | 36931 ft | 434 kts | 183° |
| 2026-05-06 16:47 | 34.64645 | -7.77051 | 36947 ft | 434 kts | 183° |
| 2026-05-06 16:48 | 34.58610 | -7.76637 | 36948 ft | 434 kts | 183° |
| 2026-05-06 16:48 | 34.52581 | -7.76217 | 36951 ft | 434 kts | 183° |
| 2026-05-06 16:49 | 34.46550 | -7.75799 | 36929 ft | 433 kts | 183° |
| 2026-05-06 16:49 | 34.40550 | -7.75382 | 36943 ft | 432 kts | 183° |
| 2026-05-06 16:50 | 34.34551 | -7.74966 | 36947 ft | 432 kts | 183° |
| 2026-05-06 16:50 | 34.28554 | -7.74548 | 36950 ft | 432 kts | 183° |
| 2026-05-06 16:51 | 34.22558 | -7.74131 | 36924 ft | 432 kts | 183° |
| 2026-05-06 16:51 | 34.16586 | -7.73670 | 36942 ft | 429 kts | 182° |
| 2026-05-06 16:52 | 34.10629 | -7.73123 | 36947 ft | 429 kts | 182° |
| 2026-05-06 16:52 | 34.04710 | -7.72576 | 36944 ft | 429 kts | 182° |
| 2026-05-06 16:53 | 33.98746 | -7.72026 | 36949 ft | 430 kts | 182° |
| 2026-05-06 16:53 | 33.92805 | -7.71476 | 36934 ft | 424 kts | 183° |
| 2026-05-06 16:54 | 33.86934 | -7.70936 | 36941 ft | 423 kts | 183° |
| 2026-05-06 16:54 | 33.81072 | -7.70397 | 36940 ft | 422 kts | 183° |
| 2026-05-06 16:55 | 33.75213 | -7.69860 | 36946 ft | 422 kts | 183° |
| 2026-05-06 16:55 | 33.69357 | -7.69321 | 36902 ft | 421 kts | 183° |
| 2026-05-06 16:56 | 33.63544 | -7.68789 | 36906 ft | 418 kts | 183° |
| 2026-05-06 16:56 | 33.57742 | -7.68261 | 36906 ft | 418 kts | 183° |
| 2026-05-06 16:57 | 33.51922 | -7.67557 | 36913 ft | 428 kts | 175° |
| 2026-05-06 16:57 | 33.46182 | -7.65299 | 36912 ft | 437 kts | 168° |
| 2026-05-06 16:58 | 33.40506 | -7.62818 | 36926 ft | 430 kts | 169° |
| 2026-05-06 16:58 | 33.34866 | -7.60424 | 36937 ft | 430 kts | 170° |
| 2026-05-06 16:59 | 33.29245 | -7.58069 | 36938 ft | 426 kts | 171° |
| 2026-05-06 16:59 | 33.23681 | -7.55722 | 36935 ft | 425 kts | 171° |
| 2026-05-06 17:00 | 33.18106 | -7.53381 | 36693 ft | 423 kts | 171° |
| 2026-05-06 17:00 | 33.15331 | -7.52217 | 36432 ft | 421 kts | 171° |
| 2026-05-06 17:00 | 33.12565 | -7.51130 | 35855 ft | 413 kts | 175° |
| 2026-05-06 17:00 | 33.09782 | -7.50582 | 35152 ft | 398 kts | 186° |
| 2026-05-06 17:01 | 33.07034 | -7.50519 | 34442 ft | 394 kts | 189° |
| 2026-05-06 17:01 | 33.04294 | -7.50541 | 33717 ft | 394 kts | 190° |
| 2026-05-06 17:01 | 33.01555 | -7.50557 | 32950 ft | 395 kts | 189° |
| 2026-05-06 17:01 | 32.98801 | -7.50556 | 32245 ft | 396 kts | 188° |
| 2026-05-06 17:02 | 32.96049 | -7.50544 | 31602 ft | 395 kts | 188° |
| 2026-05-06 17:02 | 32.93300 | -7.50529 | 30988 ft | 395 kts | 188° |
| 2026-05-06 17:02 | 32.90557 | -7.50514 | 30400 ft | 394 kts | 188° |
| 2026-05-06 17:02 | 32.87820 | -7.50499 | 29807 ft | 393 kts | 187° |
| 2026-05-06 17:03 | 32.85125 | -7.50483 | 29152 ft | 392 kts | 187° |
| 2026-05-06 17:03 | 32.82399 | -7.50466 | 28525 ft | 391 kts | 187° |
| 2026-05-06 17:03 | 32.79682 | -7.50449 | 27937 ft | 389 kts | 187° |
| 2026-05-06 17:03 | 32.76983 | -7.50432 | 27387 ft | 387 kts | 187° |
| 2026-05-06 17:04 | 32.74300 | -7.50415 | 26817 ft | 385 kts | 187° |
| 2026-05-06 17:04 | 32.71622 | -7.50400 | 26235 ft | 384 kts | 186° |
| 2026-05-06 17:04 | 32.68948 | -7.50383 | 25679 ft | 383 kts | 186° |
| 2026-05-06 17:04 | 32.66287 | -7.50366 | 25109 ft | 382 kts | 186° |
| 2026-05-06 17:05 | 32.63631 | -7.50341 | 24570 ft | 382 kts | 186° |
| 2026-05-06 17:05 | 32.60976 | -7.50310 | 24012 ft | 381 kts | 186° |
| 2026-05-06 17:05 | 32.58327 | -7.50291 | 23450 ft | 381 kts | 186° |
| 2026-05-06 17:05 | 32.55677 | -7.50273 | 22826 ft | 381 kts | 186° |
| 2026-05-06 17:06 | 32.53033 | -7.50257 | 22241 ft | 379 kts | 185° |
| 2026-05-06 17:06 | 32.50394 | -7.50241 | 21645 ft | 379 kts | 185° |
| 2026-05-06 17:06 | 32.47763 | -7.50222 | 21070 ft | 378 kts | 185° |
| 2026-05-06 17:06 | 32.45135 | -7.50204 | 20524 ft | 377 kts | 185° |
| 2026-05-06 17:07 | 32.42522 | -7.50186 | 19991 ft | 375 kts | 185° |
| 2026-05-06 17:07 | 32.39918 | -7.50167 | 19490 ft | 373 kts | 184° |
| 2026-05-06 17:07 | 32.37329 | -7.50150 | 18997 ft | 371 kts | 184° |
| 2026-05-06 17:07 | 32.34752 | -7.50133 | 18530 ft | 370 kts | 184° |
| 2026-05-06 17:08 | 32.32174 | -7.50116 | 18043 ft | 370 kts | 184° |
| 2026-05-06 17:08 | 32.29597 | -7.50099 | 17539 ft | 370 kts | 184° |
| 2026-05-06 17:08 | 32.27025 | -7.50083 | 17062 ft | 369 kts | 184° |
| 2026-05-06 17:08 | 32.24462 | -7.50067 | 16574 ft | 369 kts | 184° |
| 2026-05-06 17:09 | 32.21910 | -7.50050 | 16093 ft | 363 kts | 183° |
| 2026-05-06 17:09 | 32.19406 | -7.50032 | 15646 ft | 356 kts | 183° |
| 2026-05-06 17:09 | 32.16953 | -7.50015 | 15223 ft | 349 kts | 183° |
| 2026-05-06 17:09 | 32.14543 | -7.49999 | 14808 ft | 343 kts | 183° |
| 2026-05-06 17:10 | 32.12207 | -7.49983 | 14370 ft | 338 kts | 183° |
| 2026-05-06 17:10 | 32.09878 | -7.50064 | 13949 ft | 331 kts | 191° |
| 2026-05-06 17:10 | 32.07728 | -7.50857 | 13528 ft | 322 kts | 211° |
| 2026-05-06 17:10 | 32.05988 | -7.52472 | 13100 ft | 318 kts | 227° |
| 2026-05-06 17:11 | 32.04514 | -7.54409 | 12696 ft | 317 kts | 229° |
| 2026-05-06 17:11 | 32.03060 | -7.56361 | 12287 ft | 317 kts | 229° |
| 2026-05-06 17:11 | 32.01598 | -7.58302 | 11873 ft | 317 kts | 229° |
| 2026-05-06 17:11 | 32.00129 | -7.60231 | 11503 ft | 316 kts | 229° |
| 2026-05-06 17:12 | 31.98651 | -7.62159 | 11108 ft | 321 kts | 228° |
| 2026-05-06 17:12 | 31.97138 | -7.64127 | 10741 ft | 325 kts | 228° |
| 2026-05-06 17:12 | 31.95626 | -7.66092 | 10468 ft | 323 kts | 228° |
| 2026-05-06 17:12 | 31.94117 | -7.68049 | 10230 ft | 322 kts | 228° |
| 2026-05-06 17:13 | 31.92611 | -7.69999 | 10009 ft | 322 kts | 228° |
| 2026-05-06 17:13 | 31.91617 | -7.71287 | 9817 ft | 321 kts | 228° |
| 2026-05-06 17:13 | 31.90119 | -7.73224 | 9419 ft | 319 kts | 228° |
| 2026-05-06 17:13 | 31.88624 | -7.75161 | 9032 ft | 320 kts | 228° |
| 2026-05-06 17:14 | 31.87127 | -7.77096 | 8659 ft | 320 kts | 228° |
| 2026-05-06 17:14 | 31.85626 | -7.79033 | 8303 ft | 319 kts | 227° |
| 2026-05-06 17:14 | 31.83938 | -7.80656 | 8025 ft | 310 kts | 209° |
| 2026-05-06 17:14 | 31.81908 | -7.81344 | 7785 ft | 302 kts | 185° |
| 2026-05-06 17:15 | 31.79837 | -7.81273 | 7579 ft | 294 kts | 178° |
| 2026-05-06 17:15 | 31.77838 | -7.81088 | 7425 ft | 283 kts | 177° |
| 2026-05-06 17:15 | 31.75913 | -7.80918 | 7294 ft | 272 kts | 177° |
| 2026-05-06 17:15 | 31.74065 | -7.80766 | 7173 ft | 261 kts | 179° |
| 2026-05-06 17:16 | 31.72291 | -7.80627 | 7050 ft | 250 kts | 178° |
| 2026-05-06 17:16 | 31.70571 | -7.80496 | 6794 ft | 247 kts | 178° |
| 2026-05-06 17:16 | 31.68854 | -7.80370 | 6448 ft | 248 kts | 178° |
| 2026-05-06 17:16 | 31.67129 | -7.80244 | 6079 ft | 248 kts | 178° |
| 2026-05-06 17:17 | 31.65438 | -7.80208 | 5861 ft | 237 kts | 186° |
| 2026-05-06 17:17 | 31.63838 | -7.80414 | 5655 ft | 227 kts | 190° |
| 2026-05-06 17:17 | 31.62283 | -7.80658 | 5314 ft | 223 kts | 189° |
| 2026-05-06 17:17 | 31.60757 | -7.80913 | 4990 ft | 221 kts | 193° |
| 2026-05-06 17:18 | 31.59446 | -7.81730 | 4739 ft | 211 kts | 230° |
| 2026-05-06 17:18 | 31.58870 | -7.83206 | 4576 ft | 193 kts | 266° |
| 2026-05-06 17:18 | 31.58952 | -7.84687 | 4422 ft | 174 kts | 280° |
| 2026-05-06 17:18 | 31.59104 | -7.86019 | 4312 ft | 156 kts | 279° |
| 2026-05-06 17:19 | 31.59222 | -7.87233 | 4176 ft | 149 kts | 278° |
| 2026-05-06 17:19 | 31.59332 | -7.88439 | 4005 ft | 148 kts | 278° |
| 2026-05-06 17:19 | 31.59442 | -7.89639 | 3809 ft | 148 kts | 278° |
| 2026-05-06 17:19 | 31.59548 | -7.90840 | 3606 ft | 148 kts | 278° |
| 2026-05-06 17:20 | 31.59654 | -7.92030 | 3330 ft | 146 kts | 279° |
| 2026-05-06 17:20 | 31.59761 | -7.93206 | 3015 ft | 145 kts | 279° |
| 2026-05-06 17:20 | 31.59864 | -7.94387 | 2769 ft | 145 kts | 279° |
| 2026-05-06 17:20 | 31.59968 | -7.95553 | 2586 ft | 143 kts | 280° |
| 2026-05-06 17:21 | 31.60066 | -7.96695 | 2454 ft | 143 kts | 279° |
| 2026-05-06 17:21 | 31.60174 | -7.97855 | 2280 ft | 144 kts | 280° |
| 2026-05-06 17:21 | 31.60288 | -7.99036 | 2085 ft | 147 kts | 279° |
| 2026-05-06 17:21 | 31.60387 | -8.00226 | 1876 ft | 148 kts | 277° |
| 2026-05-06 17:22 | 31.60494 | -8.01427 | 1684 ft | 148 kts | 277° |
| 2026-05-06 17:22 | 31.60600 | -8.02612 | 1559 ft | 138 kts | 277° |
| 2026-05-06 17:22 | 31.60682 | -8.03545 | 1547 ft | 87 kts | 276° |
| 2026-05-06 17:22 | 31.60731 | -8.04098 | 1535 ft | 40 kts | 276° |
| 2026-05-06 17:23 | 31.60750 | -8.04325 | 1543 ft | 14 kts | 274° |
| 2026-05-06 17:23 | 31.60718 | -8.04392 | 1538 ft | 11 kts | 190° |
| 2026-05-06 17:23 | 31.60642 | -8.04398 | 1550 ft | 11 kts | 186° |
| 2026-05-06 17:23 | 31.60583 | -8.04380 | 1553 ft | 10 kts | 123° |
| 2026-05-06 17:24 | 31.60574 | -8.04291 | 1553 ft | 12 kts | 93° |
| 2026-05-06 17:24 | 31.60566 | -8.04181 | 1553 ft | 15 kts | 97° |
| 2026-05-06 17:24 | 31.60553 | -8.04054 | 1553 ft | 17 kts | 96° |
| 2026-05-06 17:24 | 31.60541 | -8.03910 | 1553 ft | 19 kts | 96° |
| 2026-05-06 17:25 | 31.60527 | -8.03750 | 1553 ft | 21 kts | 96° |
| 2026-05-06 17:25 | 31.60512 | -8.03576 | 1553 ft | 22 kts | 96° |
| 2026-05-06 17:25 | 31.60495 | -8.03386 | 1554 ft | 24 kts | 96° |
| 2026-05-06 17:25 | 31.60477 | -8.03183 | 1554 ft | 26 kts | 96° |
| 2026-05-06 17:26 | 31.60462 | -8.03015 | 1555 ft | 19 kts | 97° |
| 2026-05-06 17:26 | 31.60447 | -8.02854 | 1555 ft | 20 kts | 96° |
| 2026-05-06 17:26 | 31.60433 | -8.02685 | 1555 ft | 21 kts | 95° |
| 2026-05-06 17:26 | 31.60422 | -8.02558 | 1555 ft | 12 kts | 96° |
| 2026-05-06 17:27 | 31.60413 | -8.02452 | 1555 ft | 14 kts | 96° |
| 2026-05-06 17:27 | 31.60403 | -8.02337 | 1555 ft | 15 kts | 96° |
| 2026-05-06 17:27 | 31.60394 | -8.02227 | 1554 ft | 9 kts | 96° |
| 2026-05-06 17:27 | 31.60344 | -8.02195 | 1555 ft | 10 kts | 182° |
| 2026-05-06 17:28 | 31.60271 | -8.02205 | 1555 ft | 11 kts | 186° |
| 2026-05-06 17:28 | 31.60189 | -8.02211 | 1555 ft | 12 kts | 184° |
| 2026-05-06 17:28 | 31.60106 | -8.02222 | 1555 ft | 9 kts | 187° |
| 2026-05-06 17:28 | 31.60054 | -8.02230 | 1555 ft | 5 kts | 188° |
| 2026-05-06 17:29 | 31.60053 | -8.02230 | 1555 ft | 0 kts | 188° |
| 2026-05-06 17:29 | 31.60052 | -8.02230 | 1555 ft | 1 kts | 188° |
| 2026-05-06 17:29 | 31.60035 | -8.02237 | 1555 ft | 4 kts | 217° |
| 2026-05-06 17:30 | 31.60029 | -8.02273 | 1555 ft | 5 kts | 275° |
| 2026-05-06 17:30 | 31.60032 | -8.02308 | 1555 ft | 3 kts | 272° |
| 2026-05-06 17:30 | 31.60032 | -8.02313 | 1555 ft | 0 kts | 272° |